createdAt,value
2016-11-16T00:00:34.555Z,5.33
2016-11-16T00:01:34.896Z,5.38
2016-11-16T00:02:35.082Z,5.38
2016-11-16T00:03:35.716Z,5.33
2016-11-16T00:04:35.076Z,5.3
2016-11-16T00:05:34.856Z,5.33
2016-11-16T00:06:35.391Z,5.32
2016-11-16T00:07:35.309Z,5.33
2016-11-16T00:08:35.000Z,5.33
2016-11-16T00:09:35.418Z,5.38
2016-11-16T00:10:35.400Z,5.33
2016-11-16T00:11:34.474Z,5.43
2016-11-16T00:12:35.428Z,5.41
2016-11-16T00:13:35.405Z,5.33
2016-11-16T00:14:35.853Z,5.36
2016-11-16T00:15:34.955Z,5.32
2016-11-16T00:16:34.693Z,5.38
2016-11-16T00:17:34.493Z,5.41
2016-11-16T00:18:35.040Z,5.38
2016-11-16T00:19:34.759Z,5.39
2016-11-16T00:20:35.056Z,5.38
2016-11-16T00:21:35.568Z,5.36
2016-11-16T00:22:34.632Z,5.35
2016-11-16T00:23:34.558Z,5.36
2016-11-16T00:24:34.743Z,5.44
2016-11-16T00:25:35.379Z,5.41
2016-11-16T00:26:34.763Z,5.39
2016-11-16T00:27:35.237Z,5.41
2016-11-16T00:28:35.243Z,5.38
2016-11-16T00:29:34.939Z,5.38
2016-11-16T00:30:35.898Z,5.41
2016-11-16T00:31:35.977Z,5.44
2016-11-16T00:32:34.858Z,5.39
2016-11-16T00:33:35.413Z,5.43
2016-11-16T00:34:34.769Z,5.38
2016-11-16T00:35:34.808Z,5.32
2016-11-16T00:36:34.814Z,5.47
2016-11-16T00:37:34.956Z,5.46
2016-11-16T00:38:35.757Z,5.48
2016-11-16T00:39:35.002Z,5.43
2016-11-16T00:40:35.873Z,5.47
2016-11-16T00:41:35.419Z,5.47
2016-11-16T00:42:36.826Z,5.5
2016-11-16T00:43:35.493Z,5.47
2016-11-16T00:44:35.215Z,5.47
2016-11-16T00:45:35.337Z,5.41
2016-11-16T00:46:35.332Z,5.44
2016-11-16T00:47:34.974Z,5.43
2016-11-16T00:48:35.649Z,5.43
2016-11-16T00:49:35.589Z,5.53
2016-11-16T00:50:35.363Z,5.54
2016-11-16T00:51:35.800Z,5.47
2016-11-16T00:52:36.213Z,5.44
2016-11-16T00:53:35.882Z,5.56
2016-11-16T00:54:35.239Z,5.54
2016-11-16T00:55:35.367Z,5.53
2016-11-16T00:56:35.557Z,5.61
2016-11-16T00:57:35.004Z,5.59
2016-11-16T00:58:35.335Z,5.61
2016-11-16T00:59:35.647Z,5.57
2016-11-16T01:00:35.935Z,5.57
2016-11-16T01:01:36.719Z,5.57
2016-11-16T01:02:36.400Z,5.56
2016-11-16T01:03:35.159Z,5.61
2016-11-16T01:04:36.826Z,5.54
2016-11-16T01:05:35.493Z,5.64
2016-11-16T01:06:36.548Z,5.53
2016-11-16T01:07:35.861Z,5.62
2016-11-16T01:08:35.745Z,5.61
2016-11-16T01:09:35.493Z,5.57
2016-11-16T01:10:36.065Z,5.56
2016-11-16T01:11:36.303Z,5.59
2016-11-16T01:12:35.402Z,5.59
2016-11-16T01:13:36.176Z,5.56
2016-11-16T01:14:35.589Z,5.61
2016-11-16T01:15:36.340Z,5.5
2016-11-16T01:16:36.048Z,5.61
2016-11-16T01:17:35.218Z,5.5
2016-11-16T01:18:35.946Z,5.57
2016-11-16T01:19:36.097Z,5.61
2016-11-16T01:20:36.204Z,5.56
2016-11-16T01:21:36.516Z,5.56
2016-11-16T01:22:35.790Z,5.56
2016-11-16T01:23:36.132Z,5.57
2016-11-16T01:24:35.906Z,5.61
2016-11-16T01:25:35.843Z,5.65
2016-11-16T01:26:36.034Z,5.66
2016-11-16T01:27:36.162Z,5.59
2016-11-16T01:28:35.689Z,5.59
2016-11-16T01:29:36.101Z,5.64
2016-11-16T01:30:35.649Z,5.65
2016-11-16T01:31:35.724Z,5.66
2016-11-16T01:32:35.787Z,5.66
2016-11-16T01:33:35.414Z,5.68
2016-11-16T01:34:36.415Z,5.68
2016-11-16T01:35:35.962Z,5.61
2016-11-16T01:36:35.804Z,5.68
2016-11-16T01:37:37.163Z,5.69
2016-11-16T01:38:36.308Z,5.66
2016-11-16T01:39:35.804Z,5.64
2016-11-16T01:40:36.519Z,5.66
2016-11-16T01:41:37.101Z,5.64
2016-11-16T01:42:36.357Z,5.69
2016-11-16T01:43:37.222Z,5.66
2016-11-16T01:44:36.717Z,5.66
2016-11-16T01:45:36.452Z,5.72
2016-11-16T01:46:36.126Z,5.65
2016-11-16T01:47:36.110Z,5.66
2016-11-16T01:48:36.237Z,5.65
2016-11-16T01:49:36.607Z,5.68
2016-11-16T01:50:36.336Z,5.69
2016-11-16T01:51:36.573Z,5.69
2016-11-16T01:52:35.979Z,5.73
2016-11-16T01:53:36.291Z,5.72
2016-11-16T01:54:36.747Z,5.73
2016-11-16T01:55:36.384Z,5.71
2016-11-16T01:56:36.548Z,5.69
2016-11-16T01:57:36.485Z,5.75
2016-11-16T01:58:35.891Z,5.68
2016-11-16T01:59:36.739Z,5.73
2016-11-16T02:00:36.319Z,5.8
2016-11-16T02:01:36.706Z,5.68
2016-11-16T02:02:36.282Z,5.71
2016-11-16T02:03:37.284Z,5.73
2016-11-16T02:04:36.200Z,5.73
2016-11-16T02:05:37.629Z,5.68
2016-11-16T02:06:36.576Z,5.73
2016-11-16T02:07:36.650Z,5.66
2016-11-16T02:08:36.060Z,5.72
2016-11-16T02:09:36.020Z,5.73
2016-11-16T02:10:36.775Z,5.68
2016-11-16T02:11:36.515Z,5.68
2016-11-16T02:12:36.644Z,5.71
2016-11-16T02:13:36.302Z,5.76
2016-11-16T02:14:37.336Z,5.72
2016-11-16T02:15:36.676Z,5.73
2016-11-16T02:16:37.004Z,5.76
2016-11-16T02:17:36.918Z,5.79
2016-11-16T02:18:37.187Z,5.65
2016-11-16T02:19:36.911Z,5.73
2016-11-16T02:20:36.919Z,5.8
2016-11-16T02:21:37.204Z,5.87
2016-11-16T02:22:36.454Z,5.89
2016-11-16T02:23:36.556Z,5.83
2016-11-16T02:24:36.921Z,5.87
2016-11-16T02:25:37.897Z,5.89
2016-11-16T02:26:37.132Z,5.82
2016-11-16T02:27:37.016Z,5.86
2016-11-16T02:28:37.070Z,5.82
2016-11-16T02:29:36.792Z,5.89
2016-11-16T02:30:36.374Z,5.91
2016-11-16T02:31:36.723Z,5.87
2016-11-16T02:32:36.369Z,5.84
2016-11-16T02:33:36.994Z,5.87
2016-11-16T02:34:37.217Z,5.9
2016-11-16T02:35:36.858Z,5.9
2016-11-16T02:36:36.745Z,5.84
2016-11-16T02:37:37.780Z,5.89
2016-11-16T02:38:37.476Z,5.84
2016-11-16T02:39:37.556Z,5.91
2016-11-16T02:40:37.088Z,5.87
2016-11-16T02:41:36.867Z,5.83
2016-11-16T02:42:37.107Z,5.84
2016-11-16T02:43:37.703Z,5.87
2016-11-16T02:44:36.910Z,5.86
2016-11-16T02:45:36.876Z,5.89
2016-11-16T02:46:37.763Z,5.97
2016-11-16T02:47:36.986Z,5.94
2016-11-16T02:48:37.235Z,5.98
2016-11-16T02:49:37.066Z,5.87
2016-11-16T02:50:37.878Z,5.91
2016-11-16T02:51:37.030Z,5.9
2016-11-16T02:52:36.789Z,5.94
2016-11-16T02:53:37.179Z,5.97
2016-11-16T02:54:37.108Z,5.97
2016-11-16T02:55:36.667Z,5.98
2016-11-16T02:56:37.942Z,5.98
2016-11-16T02:57:37.109Z,5.99
2016-11-16T02:58:37.490Z,6.04
2016-11-16T02:59:37.738Z,5.9
2016-11-16T03:00:36.884Z,6.01
2016-11-16T03:01:37.440Z,5.98
2016-11-16T03:02:37.692Z,5.99
2016-11-16T03:03:37.156Z,5.91
2016-11-16T03:04:36.934Z,5.87
2016-11-16T03:05:37.151Z,5.9
2016-11-16T03:06:37.414Z,5.97
2016-11-16T03:07:37.691Z,5.94
2016-11-16T03:08:37.042Z,5.89
2016-11-16T03:09:37.239Z,6.05
2016-11-16T03:10:36.997Z,5.94
2016-11-16T03:11:37.347Z,5.98
2016-11-16T03:12:37.588Z,5.93
2016-11-16T03:13:38.046Z,6.04
2016-11-16T03:14:37.302Z,6.02
2016-11-16T03:15:37.641Z,5.93
2016-11-16T03:16:37.524Z,5.93
2016-11-16T03:17:37.232Z,5.98
2016-11-16T03:18:37.053Z,6.02
2016-11-16T03:19:38.293Z,5.94
2016-11-16T03:20:38.856Z,5.99
2016-11-16T03:21:38.271Z,6.04
2016-11-16T03:22:37.328Z,5.97
2016-11-16T03:23:37.188Z,5.97
2016-11-16T03:24:37.613Z,5.97
2016-11-16T03:25:37.987Z,5.99
2016-11-16T03:26:37.818Z,6.02
2016-11-16T03:27:38.117Z,6.04
2016-11-16T03:28:37.762Z,5.99
2016-11-16T03:29:38.190Z,6.08
2016-11-16T03:30:37.702Z,6.05
2016-11-16T03:31:37.833Z,6.02
2016-11-16T03:32:37.738Z,6.05
2016-11-16T03:33:37.318Z,6.09
2016-11-16T03:34:38.082Z,6.09
2016-11-16T03:35:38.073Z,6.08
2016-11-16T03:36:37.457Z,6.04
2016-11-16T03:37:38.495Z,6.04
2016-11-16T03:38:37.430Z,6.07
2016-11-16T03:39:37.527Z,6.02
2016-11-16T03:40:37.911Z,6.07
2016-11-16T03:41:37.600Z,6.11
2016-11-16T03:42:37.394Z,6.12
2016-11-16T03:43:37.632Z,6.14
2016-11-16T03:44:38.837Z,6.16
2016-11-16T03:45:37.783Z,6.14
2016-11-16T03:46:37.796Z,6.08
2016-11-16T03:47:37.796Z,6.08
2016-11-16T03:48:38.126Z,6.14
2016-11-16T03:49:38.167Z,6.16
2016-11-16T03:50:37.447Z,6.14
2016-11-16T03:51:38.548Z,6.19
2016-11-16T03:52:38.025Z,6.14
2016-11-16T03:53:38.357Z,6.17
2016-11-16T03:54:39.057Z,6.16
2016-11-16T03:55:39.031Z,6.16
2016-11-16T03:56:38.491Z,6.17
2016-11-16T03:57:37.766Z,6.14
2016-11-16T03:58:37.680Z,6.19
2016-11-16T03:59:37.441Z,6.14
2016-11-16T04:00:38.161Z,6.11
2016-11-16T04:01:38.868Z,6.11
2016-11-16T04:02:37.665Z,6.12
2016-11-16T04:03:38.037Z,6.19
2016-11-16T04:04:37.965Z,6.14
2016-11-16T04:05:37.888Z,6.17
2016-11-16T04:06:37.850Z,6.16
2016-11-16T04:07:38.308Z,6.17
2016-11-16T04:08:37.886Z,6.11
2016-11-16T04:09:38.483Z,6.12
2016-11-16T04:10:37.469Z,6.17
2016-11-16T04:11:37.866Z,6.14
2016-11-16T04:12:39.212Z,6.17
2016-11-16T04:13:37.834Z,6.11
2016-11-16T04:14:37.674Z,6.17
2016-11-16T04:15:38.085Z,6.17
2016-11-16T04:16:39.215Z,6.19
2016-11-16T04:17:38.399Z,6.24
2016-11-16T04:18:38.455Z,6.2
2016-11-16T04:19:38.918Z,6.11
2016-11-16T04:20:39.011Z,6.12
2016-11-16T04:21:38.381Z,6.19
2016-11-16T04:22:38.454Z,6.12
2016-11-16T04:23:38.299Z,6.16
2016-11-16T04:24:38.317Z,6.2
2016-11-16T04:25:38.142Z,6.2
2016-11-16T04:26:39.626Z,6.2
2016-11-16T04:27:39.027Z,6.22
2016-11-16T04:28:38.798Z,6.27
2016-11-16T04:29:38.108Z,6.3
2016-11-16T04:30:38.160Z,6.28
2016-11-16T04:31:39.163Z,6.28
2016-11-16T04:32:39.071Z,6.3
2016-11-16T04:33:38.367Z,6.24
2016-11-16T04:34:39.352Z,6.24
2016-11-16T04:35:38.839Z,6.24
2016-11-16T04:36:38.504Z,6.2
2016-11-16T04:37:38.662Z,6.22
2016-11-16T04:38:38.493Z,6.27
2016-11-16T04:39:38.533Z,6.24
2016-11-16T04:40:39.014Z,6.19
2016-11-16T04:41:39.401Z,6.26
2016-11-16T04:42:38.926Z,6.22
2016-11-16T04:43:39.024Z,6.2
2016-11-16T04:44:38.921Z,6.24
2016-11-16T04:45:38.937Z,6.17
2016-11-16T04:46:39.353Z,6.14
2016-11-16T04:47:39.411Z,6.24
2016-11-16T04:48:39.327Z,6.27
2016-11-16T04:49:38.671Z,6.28
2016-11-16T04:50:39.361Z,6.24
2016-11-16T04:51:39.461Z,6.28
2016-11-16T04:52:39.001Z,6.28
2016-11-16T04:53:38.663Z,6.27
2016-11-16T04:54:39.268Z,6.26
2016-11-16T04:55:38.900Z,6.22
2016-11-16T04:56:39.295Z,6.22
2016-11-16T04:57:39.498Z,6.26
2016-11-16T04:58:39.219Z,6.3
2016-11-16T04:59:39.463Z,6.3
2016-11-16T05:00:38.929Z,6.24
2016-11-16T05:01:38.246Z,6.24
2016-11-16T05:02:38.094Z,6.19
2016-11-16T05:03:40.013Z,6.24
2016-11-16T05:04:39.787Z,6.27
2016-11-16T05:05:40.959Z,6.22
2016-11-16T05:06:40.383Z,6.24
2016-11-16T05:07:40.159Z,6.28
2016-11-16T05:08:40.624Z,6.2
2016-11-16T05:09:39.676Z,6.28
2016-11-16T05:10:40.377Z,6.27
2016-11-16T05:11:40.396Z,6.27
2016-11-16T05:12:39.912Z,6.3
2016-11-16T05:13:39.672Z,6.22
2016-11-16T05:14:39.193Z,6.28
2016-11-16T05:15:40.521Z,6.33
2016-11-16T05:16:39.433Z,6.3
2016-11-16T05:17:40.609Z,6.28
2016-11-16T05:18:39.665Z,6.28
2016-11-16T05:19:39.528Z,6.28
2016-11-16T05:20:40.605Z,6.26
2016-11-16T05:21:39.316Z,6.36
2016-11-16T05:22:39.677Z,6.35
2016-11-16T05:23:40.037Z,6.33
2016-11-16T05:24:40.034Z,6.33
2016-11-16T05:25:39.441Z,6.39
2016-11-16T05:26:40.714Z,6.31
2016-11-16T05:27:40.276Z,6.35
2016-11-16T05:28:39.549Z,6.38
2016-11-16T05:29:39.762Z,6.42
2016-11-16T05:30:40.127Z,6.39
2016-11-16T05:31:40.040Z,6.44
2016-11-16T05:32:40.036Z,6.46
2016-11-16T05:33:39.639Z,6.49
2016-11-16T05:34:39.300Z,6.46
2016-11-16T05:35:39.419Z,6.39
2016-11-16T05:36:39.685Z,6.38
2016-11-16T05:37:40.020Z,6.46
2016-11-16T05:38:40.165Z,6.38
2016-11-16T05:39:39.642Z,6.44
2016-11-16T05:40:39.911Z,6.46
2016-11-16T05:41:39.422Z,6.48
2016-11-16T05:42:39.448Z,6.51
2016-11-16T05:43:40.064Z,6.54
2016-11-16T05:44:40.128Z,6.41
2016-11-16T05:45:40.382Z,6.49
2016-11-16T05:46:40.024Z,6.36
2016-11-16T05:47:39.564Z,6.42
2016-11-16T05:48:40.035Z,6.48
2016-11-16T05:49:40.167Z,6.49
2016-11-16T05:50:40.248Z,6.46
2016-11-16T05:51:39.694Z,6.44
2016-11-16T05:52:40.032Z,6.38
2016-11-16T05:53:39.664Z,6.42
2016-11-16T05:54:39.675Z,6.46
2016-11-16T05:55:40.032Z,6.46
2016-11-16T05:56:39.582Z,6.51
2016-11-16T05:57:39.928Z,6.52
2016-11-16T05:58:40.654Z,6.51
2016-11-16T05:59:39.935Z,6.39
2016-11-16T06:00:40.174Z,6.51
2016-11-16T06:01:39.779Z,6.46
2016-11-16T06:02:39.929Z,6.49
2016-11-16T06:03:39.917Z,6.48
2016-11-16T06:04:39.945Z,6.57
2016-11-16T06:05:40.159Z,6.52
2016-11-16T06:06:39.914Z,6.48
2016-11-16T06:07:39.920Z,6.57
2016-11-16T06:08:40.063Z,6.6
2016-11-16T06:09:40.041Z,6.59
2016-11-16T06:10:39.810Z,6.6
2016-11-16T06:11:39.908Z,6.56
2016-11-16T06:12:39.710Z,6.62
2016-11-16T06:13:40.269Z,6.6
2016-11-16T06:14:40.296Z,6.57
2016-11-16T06:15:40.291Z,6.56
2016-11-16T06:16:39.708Z,6.57
2016-11-16T06:17:39.931Z,6.57
2016-11-16T06:18:40.285Z,6.59
2016-11-16T06:19:39.933Z,6.56
2016-11-16T06:20:39.706Z,6.6
2016-11-16T06:21:39.911Z,6.52
2016-11-16T06:22:40.789Z,6.56
2016-11-16T06:23:41.500Z,6.63
2016-11-16T06:24:40.074Z,6.59
2016-11-16T06:25:41.393Z,6.57
2016-11-16T06:26:40.197Z,6.59
2016-11-16T06:27:41.619Z,6.66
2016-11-16T06:28:40.792Z,6.64
2016-11-16T06:29:39.595Z,6.66
2016-11-16T06:30:39.941Z,6.67
2016-11-16T06:31:40.425Z,6.64
2016-11-16T06:32:40.886Z,6.64
2016-11-16T06:33:39.654Z,6.52
2016-11-16T06:34:40.134Z,6.52
2016-11-16T06:35:39.810Z,6.56
2016-11-16T06:36:40.387Z,6.56
2016-11-16T06:37:39.656Z,6.52
2016-11-16T06:38:39.888Z,6.48
2016-11-16T06:39:39.885Z,6.42
2016-11-16T06:40:39.883Z,6.51
2016-11-16T06:41:39.897Z,6.48
2016-11-16T06:42:40.400Z,6.49
2016-11-16T06:43:39.934Z,6.41
2016-11-16T06:44:40.580Z,6.41
2016-11-16T06:45:40.128Z,6.42
2016-11-16T06:46:39.840Z,6.45
2016-11-16T06:47:40.275Z,6.31
2016-11-16T06:48:40.238Z,6.52
2016-11-16T06:49:39.930Z,6.51
2016-11-16T06:50:39.895Z,6.52
2016-11-16T06:51:40.287Z,6.52
2016-11-16T06:52:39.932Z,6.57
2016-11-16T06:53:40.107Z,6.62
2016-11-16T06:54:40.206Z,6.69
2016-11-16T06:55:40.357Z,6.6
2016-11-16T06:56:39.923Z,6.72
2016-11-16T06:57:40.625Z,6.69
2016-11-16T06:58:40.885Z,6.72
2016-11-16T06:59:40.351Z,6.74
2016-11-16T07:00:40.522Z,6.82
2016-11-16T07:01:40.141Z,6.74
2016-11-16T07:02:40.289Z,6.84
2016-11-16T07:03:40.652Z,6.74
2016-11-16T07:04:40.528Z,6.85
2016-11-16T07:05:40.050Z,6.77
2016-11-16T07:06:40.642Z,6.74
2016-11-16T07:07:40.752Z,6.82
2016-11-16T07:08:40.177Z,6.69
2016-11-16T07:09:40.703Z,6.69
2016-11-16T07:10:40.288Z,6.72
2016-11-16T07:11:40.157Z,6.66
2016-11-16T07:12:40.723Z,6.74
2016-11-16T07:13:40.687Z,6.66
2016-11-16T07:14:40.638Z,6.72
2016-11-16T07:15:40.883Z,6.87
2016-11-16T07:16:40.242Z,6.81
2016-11-16T07:17:40.643Z,6.93
2016-11-16T07:18:40.533Z,7.02
2016-11-16T07:19:40.520Z,7.02
2016-11-16T07:20:40.484Z,6.99
2016-11-16T07:21:40.478Z,7.03
2016-11-16T07:22:40.594Z,6.96
2016-11-16T07:23:40.514Z,7.05
2016-11-16T07:24:40.762Z,7
2016-11-16T07:25:41.249Z,6.95
2016-11-16T07:26:41.485Z,6.95
2016-11-16T07:27:40.820Z,7.06
2016-11-16T07:28:40.623Z,6.99
2016-11-16T07:29:40.545Z,6.99
2016-11-16T07:30:40.614Z,6.93
2016-11-16T07:31:40.752Z,6.99
2016-11-16T07:32:40.680Z,7.03
2016-11-16T07:33:40.568Z,6.92
2016-11-16T07:34:40.652Z,6.96
2016-11-16T07:35:40.700Z,6.93
2016-11-16T07:36:41.212Z,6.92
2016-11-16T07:37:40.892Z,6.87
2016-11-16T07:38:40.991Z,6.96
2016-11-16T07:39:40.890Z,6.92
2016-11-16T07:40:41.348Z,6.99
2016-11-16T07:41:40.663Z,6.88
2016-11-16T07:42:41.337Z,6.88
2016-11-16T07:43:40.979Z,6.99
2016-11-16T07:44:40.826Z,6.95
2016-11-16T07:45:40.962Z,6.99
2016-11-16T07:46:41.139Z,6.95
2016-11-16T07:47:42.211Z,6.95
2016-11-16T07:48:40.935Z,7.02
2016-11-16T07:49:42.088Z,6.99
2016-11-16T07:50:40.849Z,6.95
2016-11-16T07:51:40.891Z,7
2016-11-16T07:52:40.826Z,6.95
2016-11-16T07:53:40.882Z,7.03
2016-11-16T07:54:41.138Z,6.96
2016-11-16T07:55:40.922Z,7
2016-11-16T07:56:41.108Z,6.99
2016-11-16T07:57:40.875Z,6.95
2016-11-16T07:58:41.024Z,7.02
2016-11-16T07:59:41.469Z,7.02
2016-11-16T08:00:41.512Z,7
2016-11-16T08:01:41.348Z,7.02
2016-11-16T08:02:41.033Z,6.95
2016-11-16T08:03:41.072Z,6.95
2016-11-16T08:04:41.179Z,7.05
2016-11-16T08:05:41.302Z,7.05
2016-11-16T08:06:41.355Z,7.02
2016-11-16T08:07:41.130Z,7.05
2016-11-16T08:08:41.656Z,7.03
2016-11-16T08:09:41.437Z,7.11
2016-11-16T08:10:41.579Z,7.06
2016-11-16T08:11:41.233Z,7.06
2016-11-16T08:12:41.942Z,7.06
2016-11-16T08:13:41.374Z,7.06
2016-11-16T08:14:41.471Z,7.02
2016-11-16T08:15:41.533Z,7.03
2016-11-16T08:16:41.706Z,7.05
2016-11-16T08:17:41.370Z,7.02
2016-11-16T08:18:41.501Z,7.1
2016-11-16T08:19:41.644Z,7.07
2016-11-16T08:20:41.498Z,7.11
2016-11-16T08:21:41.379Z,7.18
2016-11-16T08:22:41.828Z,7.17
2016-11-16T08:23:41.815Z,7.17
2016-11-16T08:24:41.787Z,7.14
2016-11-16T08:25:41.392Z,7.15
2016-11-16T08:26:41.359Z,7.24
2016-11-16T08:27:41.247Z,7.24
2016-11-16T08:28:41.895Z,7.2
2016-11-16T08:29:41.399Z,7.23
2016-11-16T08:30:42.357Z,7.21
2016-11-16T08:31:41.611Z,7.17
2016-11-16T08:32:41.481Z,7.15
2016-11-16T08:33:41.955Z,7.31
2016-11-16T08:34:41.711Z,7.32
2016-11-16T08:35:41.863Z,7.35
2016-11-16T08:36:41.510Z,7.33
2016-11-16T08:37:41.733Z,7.33
2016-11-16T08:38:41.698Z,7.33
2016-11-16T08:39:41.683Z,7.36
2016-11-16T08:40:41.934Z,7.35
2016-11-16T08:41:41.764Z,7.36
2016-11-16T08:42:41.705Z,7.42
2016-11-16T08:43:42.037Z,7.42
2016-11-16T08:44:42.072Z,7.45
2016-11-16T08:45:42.301Z,7.35
2016-11-16T08:46:41.971Z,7.43
2016-11-16T08:47:41.746Z,7.48
2016-11-16T08:48:41.621Z,7.51
2016-11-16T08:49:41.963Z,7.48
2016-11-16T08:50:41.982Z,7.53
2016-11-16T08:51:42.095Z,7.48
2016-11-16T08:52:42.276Z,7.47
2016-11-16T08:53:42.148Z,7.48
2016-11-16T08:54:42.051Z,7.47
2016-11-16T08:55:41.631Z,7.54
2016-11-16T08:56:41.867Z,7.47
2016-11-16T08:57:41.980Z,7.45
2016-11-16T08:58:41.919Z,7.47
2016-11-16T08:59:42.131Z,7.5
2016-11-16T09:00:41.995Z,7.53
2016-11-16T09:01:41.985Z,7.48
2016-11-16T09:02:42.211Z,7.53
2016-11-16T09:03:42.001Z,7.6
2016-11-16T09:04:41.982Z,7.58
2016-11-16T09:05:42.571Z,7.61
2016-11-16T09:06:42.443Z,7.58
2016-11-16T09:07:42.344Z,7.61
2016-11-16T09:08:42.761Z,7.66
2016-11-16T09:09:42.564Z,7.75
2016-11-16T09:10:44.039Z,7.63
2016-11-16T09:11:43.194Z,7.69
2016-11-16T09:12:43.225Z,7.61
2016-11-16T09:13:43.047Z,7.69
2016-11-16T09:14:43.226Z,7.67
2016-11-16T09:15:43.372Z,7.61
2016-11-16T09:16:43.204Z,7.63
2016-11-16T09:17:42.928Z,7.67
2016-11-16T09:18:42.444Z,7.66
2016-11-16T09:19:42.419Z,7.75
2016-11-16T09:20:43.281Z,7.76
2016-11-16T09:21:42.500Z,7.67
2016-11-16T09:22:43.063Z,7.77
2016-11-16T09:23:43.369Z,7.67
2016-11-16T09:24:42.942Z,7.63
2016-11-16T09:25:42.833Z,7.63
2016-11-16T09:26:42.808Z,7.63
2016-11-16T09:27:42.589Z,7.63
2016-11-16T09:28:42.900Z,7.77
2016-11-16T09:29:43.498Z,7.77
2016-11-16T09:30:42.833Z,7.77
2016-11-16T09:31:43.671Z,7.77
2016-11-16T09:32:43.331Z,7.76
2016-11-16T09:33:43.540Z,7.72
2016-11-16T09:34:43.268Z,7.67
2016-11-16T09:35:44.286Z,7.8
2016-11-16T09:36:43.267Z,7.8
2016-11-16T09:37:43.390Z,7.8
2016-11-16T09:38:42.588Z,7.79
2016-11-16T09:39:42.642Z,7.75
2016-11-16T09:40:43.801Z,7.75
2016-11-16T09:41:43.395Z,7.75
2016-11-16T09:42:43.256Z,7.8
2016-11-16T09:43:43.773Z,7.87
2016-11-16T09:44:43.832Z,7.83
2016-11-16T09:45:42.772Z,7.87
2016-11-16T09:46:44.104Z,7.87
2016-11-16T09:47:44.056Z,7.87
2016-11-16T09:48:43.361Z,7.95
2016-11-16T09:49:42.997Z,7.97
2016-11-16T09:50:43.548Z,7.94
2016-11-16T09:51:44.472Z,7.95
2016-11-16T09:52:43.662Z,7.98
2016-11-16T09:53:43.418Z,8.01
2016-11-16T09:54:43.740Z,7.98
2016-11-16T09:55:44.096Z,7.97
2016-11-16T09:56:44.064Z,8.01
2016-11-16T09:57:44.076Z,8.06
2016-11-16T09:58:43.435Z,8.09
2016-11-16T09:59:43.339Z,8.05
2016-11-16T10:00:44.272Z,8.1
2016-11-16T10:01:43.046Z,8.05
2016-11-16T10:02:42.959Z,8.01
2016-11-16T10:03:42.944Z,8.08
2016-11-16T10:04:43.871Z,8.08
2016-11-16T10:05:43.878Z,8.16
2016-11-16T10:06:43.207Z,8.19
2016-11-16T10:07:43.891Z,8.1
2016-11-16T10:08:43.881Z,8.13
2016-11-16T10:09:43.494Z,8.12
2016-11-16T10:10:43.427Z,8.16
2016-11-16T10:11:43.865Z,8.18
2016-11-16T10:12:43.695Z,8.16
2016-11-16T10:13:44.338Z,8.23
2016-11-16T10:14:43.653Z,8.2
2016-11-16T10:15:43.124Z,8.27
2016-11-16T10:16:43.750Z,8.33
2016-11-16T10:17:43.515Z,8.3
2016-11-16T10:18:43.441Z,8.37
2016-11-16T10:19:44.469Z,8.41
2016-11-16T10:20:43.751Z,8.37
2016-11-16T10:21:43.531Z,8.3
2016-11-16T10:22:44.109Z,8.41
2016-11-16T10:23:44.712Z,8.37
2016-11-16T10:24:43.516Z,8.37
2016-11-16T10:25:44.341Z,8.44
2016-11-16T10:26:44.570Z,8.37
2016-11-16T10:27:43.503Z,8.31
2016-11-16T10:28:43.887Z,8.49
2016-11-16T10:29:44.084Z,8.49
2016-11-16T10:30:44.371Z,8.48
2016-11-16T10:31:44.337Z,8.48
2016-11-16T10:32:44.331Z,8.52
2016-11-16T10:33:43.790Z,8.49
2016-11-16T10:34:44.138Z,8.48
2016-11-16T10:35:43.893Z,8.46
2016-11-16T10:36:43.801Z,8.49
2016-11-16T10:37:44.267Z,8.49
2016-11-16T10:38:43.495Z,8.52
2016-11-16T10:39:45.252Z,8.48
2016-11-16T10:40:44.251Z,8.46
2016-11-16T10:41:44.675Z,8.53
2016-11-16T10:42:44.591Z,8.52
2016-11-16T10:43:43.996Z,8.61
2016-11-16T10:44:44.321Z,8.53
2016-11-16T10:45:44.301Z,8.52
2016-11-16T10:46:44.753Z,8.58
2016-11-16T10:47:44.583Z,8.48
2016-11-16T10:48:44.881Z,8.61
2016-11-16T10:49:44.550Z,8.53
2016-11-16T10:50:44.179Z,8.56
2016-11-16T10:51:44.676Z,8.66
2016-11-16T10:52:44.307Z,8.67
2016-11-16T10:53:44.067Z,8.63
2016-11-16T10:54:44.796Z,8.6
2016-11-16T10:55:44.846Z,8.63
2016-11-16T10:56:44.457Z,8.69
2016-11-16T10:57:44.068Z,8.66
2016-11-16T10:58:44.080Z,8.73
2016-11-16T10:59:45.201Z,8.66
2016-11-16T11:00:44.789Z,8.69
2016-11-16T11:01:45.033Z,8.6
2016-11-16T11:02:44.881Z,8.67
2016-11-16T11:03:44.795Z,8.73
2016-11-16T11:04:44.716Z,8.74
2016-11-16T11:05:45.120Z,8.78
2016-11-16T11:06:44.973Z,8.81
2016-11-16T11:07:44.902Z,8.78
2016-11-16T11:08:45.115Z,8.84
2016-11-16T11:09:44.936Z,8.82
2016-11-16T11:10:45.036Z,8.87
2016-11-16T11:11:44.660Z,8.99
2016-11-16T11:12:44.105Z,8.94
2016-11-16T11:13:44.805Z,9
2016-11-16T11:14:45.024Z,9.06
2016-11-16T11:15:44.787Z,8.97
2016-11-16T11:16:44.768Z,9
2016-11-16T11:17:44.629Z,9.04
2016-11-16T11:18:44.595Z,9.06
2016-11-16T11:19:44.696Z,9.04
2016-11-16T11:20:44.717Z,9.16
2016-11-16T11:21:44.713Z,9.16
2016-11-16T11:22:45.241Z,9.16
2016-11-16T11:23:44.984Z,9.14
2016-11-16T11:24:44.675Z,9.18
2016-11-16T11:25:45.361Z,9.11
2016-11-16T11:26:44.840Z,9.11
2016-11-16T11:27:45.482Z,9.06
2016-11-16T11:28:45.299Z,9.16
2016-11-16T11:29:45.056Z,9.14
2016-11-16T11:30:45.157Z,9.14
2016-11-16T11:31:45.286Z,9.16
2016-11-16T11:32:44.899Z,9.13
2016-11-16T11:33:45.436Z,9.04
2016-11-16T11:34:45.010Z,9.04
2016-11-16T11:35:44.840Z,9.03
2016-11-16T11:36:44.954Z,9.13
2016-11-16T11:37:45.403Z,9.11
2016-11-16T11:38:44.766Z,9.14
2016-11-16T11:39:45.559Z,9.18
2016-11-16T11:40:44.644Z,9.22
2016-11-16T11:41:45.330Z,9.29
2016-11-16T11:42:44.558Z,9.18
2016-11-16T11:43:44.987Z,9.31
2016-11-16T11:44:45.614Z,9.29
2016-11-16T11:45:45.101Z,9.29
2016-11-16T11:46:45.305Z,9.31
2016-11-16T11:47:45.420Z,9.25
2016-11-16T11:48:46.049Z,9.32
2016-11-16T11:49:45.253Z,9.34
2016-11-16T11:50:44.819Z,9.31
2016-11-16T11:51:45.268Z,9.46
2016-11-16T11:52:45.409Z,9.46
2016-11-16T11:53:45.366Z,9.47
2016-11-16T11:54:45.405Z,9.5
2016-11-16T11:55:45.884Z,9.61
2016-11-16T11:56:45.181Z,9.59
2016-11-16T11:57:45.377Z,9.62
2016-11-16T11:58:45.662Z,9.64
2016-11-16T11:59:45.757Z,9.64
2016-11-16T12:00:45.080Z,9.72
2016-11-16T12:01:44.778Z,9.68
2016-11-16T12:02:44.933Z,9.66
2016-11-16T12:03:45.838Z,9.72
2016-11-16T12:04:45.605Z,9.68
2016-11-16T12:05:45.072Z,9.77
2016-11-16T12:06:45.500Z,9.77
2016-11-16T12:07:45.494Z,9.86
2016-11-16T12:08:45.550Z,9.8
2016-11-16T12:09:45.745Z,9.84
2016-11-16T12:10:45.699Z,9.87
2016-11-16T12:11:46.041Z,9.86
2016-11-16T12:12:45.365Z,9.91
2016-11-16T12:13:45.853Z,9.97
2016-11-16T12:14:45.409Z,9.84
2016-11-16T12:15:45.383Z,9.82
2016-11-16T12:16:45.978Z,9.89
2016-11-16T12:17:46.159Z,9.84
2016-11-16T12:18:46.172Z,9.86
2016-11-16T12:19:45.924Z,9.84
2016-11-16T12:20:45.265Z,9.87
2016-11-16T12:21:45.517Z,9.82
2016-11-16T12:22:45.791Z,9.89
2016-11-16T12:23:46.161Z,9.95
2016-11-16T12:24:45.956Z,9.91
2016-11-16T12:25:46.944Z,9.97
2016-11-16T12:26:45.543Z,9.97
2016-11-16T12:27:46.308Z,9.98
2016-11-16T12:28:45.963Z,9.98
2016-11-16T12:29:45.453Z,9.95
2016-11-16T12:30:45.847Z,9.95
2016-11-16T12:31:46.144Z,9.92
2016-11-16T12:32:46.017Z,9.92
2016-11-16T12:33:46.025Z,10.01
2016-11-16T12:34:46.162Z,10.13
2016-11-16T12:35:45.738Z,10.22
2016-11-16T12:36:46.337Z,10.2
2016-11-16T12:37:46.115Z,10.34
2016-11-16T12:38:46.763Z,10.23
2016-11-16T12:39:45.732Z,10.42
2016-11-16T12:40:45.763Z,10.41
2016-11-16T12:41:46.092Z,10.35
2016-11-16T12:42:45.912Z,10.37
2016-11-16T12:43:47.015Z,10.42
2016-11-16T12:44:46.741Z,10.44
2016-11-16T12:45:46.713Z,10.51
2016-11-16T12:46:46.111Z,10.49
2016-11-16T12:47:46.009Z,10.59
2016-11-16T12:48:45.792Z,10.63
2016-11-16T12:49:45.672Z,10.75
2016-11-16T12:50:46.158Z,10.79
2016-11-16T12:51:46.389Z,10.81
2016-11-16T12:52:46.171Z,10.81
2016-11-16T12:53:46.304Z,10.87
2016-11-16T12:54:46.900Z,10.93
2016-11-16T12:55:45.928Z,10.99
2016-11-16T12:56:45.990Z,10.9
2016-11-16T12:57:46.403Z,10.93
2016-11-16T12:58:47.590Z,10.96
2016-11-16T12:59:46.766Z,10.94
2016-11-16T13:00:47.425Z,10.97
2016-11-16T13:01:46.942Z,10.92
2016-11-16T13:02:46.199Z,11
2016-11-16T13:03:46.467Z,10.94
2016-11-16T13:04:46.625Z,10.96
2016-11-16T13:05:46.891Z,10.93
2016-11-16T13:06:46.978Z,10.94
2016-11-16T13:07:46.747Z,10.92
2016-11-16T13:08:46.799Z,10.87
2016-11-16T13:09:47.265Z,10.78
2016-11-16T13:10:46.480Z,10.92
2016-11-16T13:11:47.040Z,10.89
2016-11-16T13:12:46.411Z,10.87
2016-11-16T13:13:46.957Z,10.82
2016-11-16T13:14:47.099Z,10.99
2016-11-16T13:15:47.002Z,10.97
2016-11-16T13:16:47.069Z,11.07
2016-11-16T13:17:47.505Z,11.04
2016-11-16T13:18:46.384Z,11.11
2016-11-16T13:19:47.334Z,11.05